Terminal Aerodrome Forecast
Issued by NWS

Home | Current Version | Previous Version | Text Only | Print | Product List | Glossary On
Versions: 1 2 3 4 5 6 7 8 9 10 11 12 13 14
000
FTAK31 PAJN 301130
TAFAWG
TAF
PAWG 301130Z 3012/0112 11010KT P6SM VCSH OVC050
     FM301500 12012G22KT P6SM -RA OVC040
     FM301800 12015G25KT P6SM -RA SCT020 OVC035 WS020/15040KT
     FM302000 12020G30KT 3SM RA BR FEW006 BKN010 OVC020
      WS020/15045KT
     FM010100 12015KT 5SM -RA BR BKN015 OVC025 WS020/17035KT
     FM010700 12010KT 6SM -RA BKN020 OVC030
      AMD LTD TO CLD VIS AND WIND 3012/3015=

USA.gov is the U.S. government's official web portal to all federal, state and local government web resources and services.